West Woods, Connecticut
Current Conditions -  °F | °C
As of 12:53 PM on Sunday 23 Nov 2014 (Local Time) from KPOU Reporting Station
Overcast Overcast  
Wind Chill: 56°   Ceiling: 11000
Heat Index: 56°   Visibility: 10mi
Dew Point: 25°   Wind: 3mph
Humidity: 30%   Direction: 170°S
Pressure: 30.12"   Gusts: NA
Location:  41.8554°N, 73.4421°W
Report Text: KPOU 231753Z 17003KT 10SM SCT080 OVC110 13/M04 A3012 RMK AO2 SLP195 T01331039 10133 20067 58021
Loading
Personal Weather Stations






























Interactive Weather Map New forecast layout! Learn more

10-Day Weather Forecast

Advertisements
Track Severe Weather on mobile